createdAt,value
2022-12-26T00:02:35.819Z,99074.34
2022-12-26T00:05:48.090Z,99075.25
2022-12-26T00:09:01.969Z,99068.50
2022-12-26T00:12:14.211Z,99069.09
2022-12-26T00:15:26.483Z,99069.09
2022-12-26T00:18:38.612Z,99054.67
2022-12-26T00:21:50.716Z,99028.83
2022-12-26T00:25:02.846Z,99019.09
2022-12-26T00:28:15.708Z,99014.80
2022-12-26T00:31:32.238Z,99014.11
2022-12-26T00:34:44.564Z,99008.44
2022-12-26T00:37:56.904Z,99007.28
2022-12-26T00:41:10.128Z,98996.11
2022-12-26T00:44:22.296Z,98989.55
2022-12-26T00:47:34.389Z,98991.61
2022-12-26T00:50:46.498Z,98999.55
2022-12-26T00:53:58.549Z,99000.14
2022-12-26T00:57:10.519Z,98998.17
2022-12-26T01:00:25.517Z,99000.89
2022-12-26T01:03:37.676Z,98996.17
2022-12-26T01:06:49.814Z,99001.41
2022-12-26T01:10:01.914Z,99003.28
2022-12-26T01:13:14.318Z,98983.25
2022-12-26T01:16:27.865Z,98979.02
2022-12-26T01:19:40.599Z,98978.09
2022-12-26T01:22:53.023Z,98975.48
2022-12-26T01:26:16.490Z,98985.88
2022-12-26T01:29:19.168Z,98986.72
2022-12-26T01:32:31.234Z,98983.61
2022-12-26T01:35:43.291Z,98989.41
2022-12-26T01:38:55.452Z,98991.87
2022-12-26T01:42:08.092Z,98979.97
2022-12-26T01:45:33.175Z,98980.63
2022-12-26T01:48:45.415Z,98968.00
2022-12-26T01:52:01.991Z,98967.91
2022-12-26T01:55:19.004Z,98970.23
2022-12-26T01:58:36.147Z,98964.06
2022-12-26T02:01:49.888Z,98969.87
2022-12-26T02:05:18.734Z,98982.63
2022-12-26T02:08:35.555Z,98963.44
2022-12-26T02:12:34.088Z,98963.34
2022-12-26T02:15:09.676Z,98954.81
2022-12-26T02:18:21.732Z,98950.13
2022-12-26T02:21:59.829Z,98943.66
2022-12-26T02:25:35.556Z,98934.66
2022-12-26T02:29:27.693Z,98939.64
2022-12-26T02:33:08.941Z,98937.77
2022-12-26T02:37:04.678Z,98933.17
2022-12-26T02:40:46.537Z,98923.14
2022-12-26T02:56:25.102Z,98858.28
2022-12-26T02:59:59.657Z,98837.84
2022-12-26T03:03:32.595Z,98831.17
2022-12-26T03:07:03.974Z,98827.31
2022-12-26T03:10:39.523Z,98836.25
2022-12-26T03:13:54.883Z,98836.89
2022-12-26T03:17:24.515Z,98831.07
2022-12-26T03:20:40.397Z,98854.31
2022-12-26T03:23:54.776Z,98869.70
2022-12-26T03:27:07.212Z,98877.95
2022-12-26T03:30:33.961Z,98863.70
2022-12-26T03:34:03.551Z,98853.78
2022-12-26T03:37:50.177Z,98859.78
2022-12-26T03:41:21.953Z,98842.64
2022-12-26T03:45:03.451Z,98858.77
2022-12-26T03:48:37.732Z,98857.38
2022-12-26T03:52:09.371Z,98854.75
2022-12-26T03:55:42.052Z,98851.17
2022-12-26T03:59:15.786Z,98850.80
2022-12-26T04:02:45.819Z,98835.05
2022-12-26T04:06:13.008Z,98833.38
2022-12-26T04:09:45.375Z,98833.45
2022-12-26T04:13:14.096Z,98832.33
2022-12-26T04:16:47.157Z,98821.39
2022-12-26T04:20:08.521Z,98822.52
2022-12-26T04:23:45.779Z,98829.54
2022-12-26T04:27:15.941Z,98812.95
2022-12-26T04:30:43.178Z,98807.91
2022-12-26T04:34:15.477Z,98805.84
2022-12-26T04:37:53.451Z,98795.72
2022-12-26T04:41:20.585Z,98785.23
2022-12-26T04:44:33.994Z,98776.72
2022-12-26T04:47:49.124Z,98774.09
2022-12-26T04:51:01.025Z,98776.88
2022-12-26T04:54:13.694Z,98778.75
2022-12-26T04:57:26.060Z,98775.48
2022-12-26T05:00:39.473Z,98776.61
2022-12-26T05:04:05.964Z,98764.45
2022-12-26T05:07:37.435Z,98777.56
2022-12-26T05:10:49.420Z,98771.00
2022-12-26T05:14:03.096Z,98778.12
2022-12-26T05:17:32.014Z,98771.95
2022-12-26T05:20:59.552Z,98768.38
2022-12-26T05:24:26.618Z,98776.17
2022-12-26T05:31:35.011Z,98779.82
2022-12-26T05:34:43.633Z,98781.69
2022-12-26T05:37:55.698Z,98785.61
2022-12-26T05:41:07.857Z,98793.58
2022-12-26T05:53:20.489Z,98790.03
2022-12-26T05:56:32.691Z,98800.59
2022-12-26T05:59:44.655Z,98801.34
2022-12-26T06:02:57.081Z,98802.94
2022-12-26T06:06:10.286Z,98810.05
2022-12-26T06:09:23.321Z,98808.48
2022-12-26T06:12:35.462Z,98810.05
2022-12-26T06:15:47.743Z,98821.58
2022-12-26T06:18:59.991Z,98820.16
2022-12-26T06:22:12.094Z,98829.25
2022-12-26T06:25:24.244Z,98827.84
2022-12-26T06:28:37.506Z,98832.23
2022-12-26T06:31:49.737Z,98815.00
2022-12-26T06:35:01.944Z,98818.58
2022-12-26T06:38:14.657Z,98822.11
2022-12-26T06:41:29.078Z,98821.95
2022-12-26T06:44:41.279Z,98815.59
2022-12-26T06:47:53.422Z,98826.44
2022-12-26T06:51:10.817Z,98834.00
2022-12-26T06:54:22.957Z,98821.38
2022-12-26T06:57:35.018Z,98835.80
2022-12-26T07:00:47.245Z,98846.50
2022-12-26T07:04:00.459Z,98848.00
2022-12-26T07:07:12.611Z,98854.36
2022-12-26T07:10:25.464Z,98855.28
2022-12-26T07:13:37.641Z,98856.03
2022-12-26T07:16:51.226Z,98850.42
2022-12-26T07:20:03.768Z,98842.33
2022-12-26T07:23:15.898Z,98843.38
2022-12-26T07:26:29.914Z,98836.03
2022-12-26T07:29:43.101Z,98831.06
2022-12-26T07:32:56.546Z,98822.96
2022-12-26T07:36:12.813Z,98818.60
2022-12-26T07:39:25.031Z,98807.55
2022-12-26T07:50:44.708Z,98806.27
2022-12-26T07:53:56.861Z,98830.77
2022-12-26T07:57:46.031Z,98824.77
2022-12-26T08:00:26.668Z,98831.28
2022-12-26T08:03:39.248Z,98845.76
2022-12-26T08:06:53.639Z,98852.16
2022-12-26T08:14:24.146Z,98848.36
2022-12-26T08:17:37.314Z,98835.54
2022-12-26T08:20:49.663Z,98837.65
2022-12-26T08:24:02.167Z,98841.34
2022-12-26T08:27:14.809Z,98844.30
2022-12-26T08:30:26.990Z,98831.33
2022-12-26T08:33:40.870Z,98837.95
2022-12-26T08:36:56.345Z,98844.80
2022-12-26T08:40:09.586Z,98849.22
2022-12-26T08:43:39.164Z,98845.66
2022-12-26T08:46:36.941Z,98854.91
2022-12-26T08:49:49.488Z,98854.80
2022-12-26T08:53:01.688Z,98857.42
2022-12-26T08:56:17.931Z,98846.29
2022-12-26T08:59:30.181Z,98857.02
2022-12-26T09:02:42.386Z,98866.70
2022-12-26T09:05:55.203Z,98859.73
2022-12-26T09:09:11.349Z,98870.33
2022-12-26T09:12:23.721Z,98872.53
2022-12-26T09:15:35.777Z,98859.66
2022-12-26T09:18:49.126Z,98857.56
2022-12-26T09:22:12.053Z,98852.67
2022-12-26T09:25:24.816Z,98848.05
2022-12-26T09:28:36.832Z,98843.88
2022-12-26T09:31:48.982Z,98846.39
2022-12-26T09:35:01.882Z,98848.73
2022-12-26T09:38:14.074Z,98835.81
2022-12-26T09:41:48.600Z,98841.14
2022-12-26T09:45:07.601Z,98843.91
2022-12-26T09:48:26.225Z,98845.32
2022-12-26T09:51:41.267Z,98851.84
2022-12-26T09:54:57.476Z,98840.23
2022-12-26T09:58:18.216Z,98836.40
2022-12-26T10:01:34.810Z,98824.67
2022-12-26T10:04:47.813Z,98820.47
2022-12-26T10:08:05.380Z,98813.48
2022-12-26T10:11:24.212Z,98832.70
2022-12-26T10:14:44.434Z,98822.35
2022-12-26T10:18:03.611Z,98827.38
2022-12-26T10:21:29.697Z,98825.58
2022-12-26T10:24:47.315Z,98828.23
2022-12-26T10:28:00.034Z,98817.03
2022-12-26T10:31:19.785Z,98816.66
2022-12-26T10:34:35.596Z,98810.53
2022-12-26T10:37:50.578Z,98809.32
2022-12-26T10:41:08.514Z,98808.11
2022-12-26T10:44:27.407Z,98795.10
2022-12-26T10:47:41.551Z,98791.58
2022-12-26T10:50:55.731Z,98772.16
2022-12-26T10:54:13.025Z,98758.18
2022-12-26T10:57:25.521Z,98766.13
2022-12-26T11:00:37.851Z,98770.53
2022-12-26T11:03:59.626Z,98773.09
2022-12-26T11:07:16.071Z,98771.33
2022-12-26T11:10:32.687Z,98757.84
2022-12-26T11:13:52.229Z,98753.50
2022-12-26T11:17:08.930Z,98739.70
2022-12-26T11:20:36.025Z,98727.59
2022-12-26T11:23:48.297Z,98739.59
2022-12-26T11:27:09.465Z,98747.29
2022-12-26T11:30:29.468Z,98756.79
2022-12-26T11:33:47.808Z,98743.94
2022-12-26T11:37:00.509Z,98757.70
2022-12-26T11:40:22.262Z,98757.28
2022-12-26T11:43:34.996Z,98750.28
2022-12-26T11:46:50.311Z,98758.94
2022-12-26T11:50:08.860Z,98748.64
2022-12-26T11:53:26.509Z,98730.87
2022-12-26T11:56:39.775Z,98727.75
2022-12-26T11:59:53.174Z,98736.53
2022-12-26T12:03:05.813Z,98732.36
2022-12-26T12:06:42.171Z,98722.11
2022-12-26T12:09:59.642Z,98713.16
2022-12-26T12:13:18.665Z,98706.34
2022-12-26T12:16:48.799Z,98695.44
2022-12-26T12:20:19.082Z,98702.20
2022-12-26T12:24:03.471Z,98687.57
2022-12-26T12:27:23.457Z,98680.91
2022-12-26T12:30:43.062Z,98683.38
2022-12-26T12:34:01.743Z,98673.31
2022-12-26T12:37:24.941Z,98685.65
2022-12-26T12:40:45.323Z,98673.53
2022-12-26T12:44:05.378Z,98674.89
2022-12-26T12:47:23.622Z,98667.30
2022-12-26T12:50:44.183Z,98668.09
2022-12-26T12:54:26.013Z,98671.05
2022-12-26T12:57:45.852Z,98661.56
2022-12-26T13:01:03.066Z,98670.45
2022-12-26T13:04:20.680Z,98683.56
2022-12-26T13:07:41.802Z,98666.97
2022-12-26T13:10:59.510Z,98661.53
2022-12-26T13:14:16.557Z,98665.80
2022-12-26T13:17:29.589Z,98674.58
2022-12-26T13:20:47.968Z,98674.09
2022-12-26T13:24:20.061Z,98676.05
2022-12-26T13:27:35.629Z,98687.50
2022-12-26T13:30:48.203Z,98689.86
2022-12-26T13:34:01.746Z,98698.66
2022-12-26T13:37:26.173Z,98707.70
2022-12-26T13:40:38.761Z,98706.14
2022-12-26T13:44:07.798Z,98712.23
2022-12-26T13:47:40.395Z,98720.30
2022-12-26T13:51:01.534Z,98724.73
2022-12-26T13:54:19.657Z,98720.81
2022-12-26T13:57:47.523Z,98698.61
2022-12-26T14:01:06.121Z,98710.72
2022-12-26T14:04:52.212Z,98708.73
2022-12-26T14:08:10.483Z,98720.42
2022-12-26T14:11:36.341Z,98719.01
2022-12-26T14:15:12.109Z,98717.84
2022-12-26T14:18:35.714Z,98710.70
2022-12-26T14:21:56.964Z,98704.97
2022-12-26T14:25:21.692Z,98711.88
2022-12-26T14:28:40.989Z,98717.08
2022-12-26T14:32:02.029Z,98721.77
2022-12-26T14:35:22.089Z,98711.59
2022-12-26T14:38:45.127Z,98704.15
2022-12-26T14:42:42.211Z,98701.86
2022-12-26T14:45:58.623Z,98706.09
2022-12-26T14:49:33.521Z,98711.40
2022-12-26T14:52:48.023Z,98720.80
2022-12-26T14:56:04.056Z,98721.06
2022-12-26T14:59:37.314Z,98723.57
2022-12-26T15:02:55.849Z,98726.59
2022-12-26T15:06:54.205Z,98711.20
2022-12-26T15:10:58.428Z,98728.11
2022-12-26T15:14:48.369Z,98719.26
2022-12-26T15:18:29.601Z,98717.79
2022-12-26T15:22:22.295Z,98720.73
2022-12-26T15:26:33.639Z,98721.38
2022-12-26T15:30:18.407Z,98709.59
2022-12-26T15:33:36.402Z,98710.06
2022-12-26T15:36:53.960Z,98709.52
2022-12-26T15:40:16.827Z,98705.62
2022-12-26T15:44:04.234Z,98699.21
2022-12-26T15:47:25.295Z,98699.21
2022-12-26T15:50:45.964Z,98691.81
2022-12-26T15:54:08.208Z,98687.50
2022-12-26T15:57:29.062Z,98696.97
2022-12-26T16:00:44.077Z,98702.86
2022-12-26T16:04:00.390Z,98700.66
2022-12-26T16:07:28.720Z,98691.38
2022-12-26T16:10:43.523Z,98690.63
2022-12-26T16:14:08.948Z,98690.33
2022-12-26T16:17:31.621Z,98678.76
2022-12-26T16:20:58.913Z,98674.31
2022-12-26T16:24:16.796Z,98667.93
2022-12-26T16:27:32.080Z,98683.66
2022-12-26T16:30:45.449Z,98681.27
2022-12-26T16:34:00.930Z,98689.34
2022-12-26T16:37:14.027Z,98677.48
2022-12-26T16:40:32.136Z,98677.27
2022-12-26T16:43:45.611Z,98679.06
2022-12-26T16:46:57.981Z,98683.08
2022-12-26T16:50:19.785Z,98687.52
2022-12-26T16:53:47.329Z,98683.13
2022-12-26T16:57:01.018Z,98692.98
2022-12-26T17:00:24.914Z,98695.77
2022-12-26T17:03:48.719Z,98692.98
2022-12-26T17:07:07.325Z,98705.22
2022-12-26T17:10:29.402Z,98709.98
2022-12-26T17:13:42.490Z,98715.80
2022-12-26T17:17:05.152Z,98728.59
2022-12-26T17:20:41.006Z,98733.18
2022-12-26T17:24:08.736Z,98746.13
2022-12-26T17:27:27.412Z,98748.83
2022-12-26T17:30:41.756Z,98759.61
2022-12-26T17:33:54.501Z,98763.36
2022-12-26T17:37:19.502Z,98770.34
2022-12-26T17:40:34.031Z,98761.83
2022-12-26T17:43:47.747Z,98760.87
2022-12-26T17:47:00.606Z,98735.61
2022-12-26T17:50:13.846Z,98729.45
2022-12-26T17:53:37.941Z,98712.55
2022-12-26T17:56:50.323Z,98686.45
2022-12-26T18:00:04.031Z,98667.64
2022-12-26T18:03:17.046Z,98679.09
2022-12-26T18:06:31.744Z,98661.80
2022-12-26T18:09:43.945Z,98619.40
2022-12-26T18:12:57.492Z,98661.09
2022-12-26T18:16:11.708Z,98649.51
2022-12-26T18:19:25.354Z,98643.80
2022-12-26T18:22:38.605Z,98622.34
2022-12-26T18:25:54.438Z,98630.41
2022-12-26T18:29:09.044Z,98625.25
2022-12-26T18:32:30.958Z,98633.05
2022-12-26T18:35:44.094Z,98643.95
2022-12-26T18:38:56.680Z,98640.05
2022-12-26T18:42:10.058Z,98662.65
2022-12-26T18:45:22.535Z,98669.35
2022-12-26T18:48:34.750Z,98684.56
2022-12-26T18:51:46.958Z,98676.45
2022-12-26T18:54:59.813Z,98689.02
2022-12-26T18:58:14.319Z,98690.00
2022-12-26T19:01:27.202Z,98681.35
2022-12-26T19:04:39.651Z,98679.66
2022-12-26T19:07:52.780Z,98687.76
2022-12-26T19:11:05.384Z,98689.01
2022-12-26T19:14:23.897Z,98669.05
2022-12-26T19:17:36.704Z,98671.85
2022-12-26T19:20:50.911Z,98680.75
2022-12-26T19:28:29.323Z,98674.91
2022-12-26T19:31:42.271Z,98695.97
2022-12-26T19:34:56.175Z,98704.77
2022-12-26T19:38:09.401Z,98724.31
2022-12-26T19:41:22.463Z,98738.52
2022-12-26T19:44:34.586Z,98727.66
2022-12-26T19:47:47.566Z,98744.38
2022-12-26T19:51:02.242Z,98742.86
2022-12-26T19:54:14.527Z,98744.95
2022-12-26T19:57:27.388Z,98748.56
2022-12-26T20:00:39.588Z,98757.50
2022-12-26T20:03:52.424Z,98751.61
2022-12-26T20:07:07.632Z,98742.53
2022-12-26T20:10:20.389Z,98749.08
2022-12-26T20:13:33.870Z,98747.66
2022-12-26T20:17:05.653Z,98758.41
2022-12-26T20:20:03.320Z,98757.11
2022-12-26T20:23:16.880Z,98761.98
2022-12-26T20:26:30.436Z,98763.08
2022-12-26T20:29:42.791Z,98761.98
2022-12-26T20:32:55.920Z,98754.88
2022-12-26T20:36:13.788Z,98753.61
2022-12-26T20:39:29.046Z,98758.06
2022-12-26T20:42:44.050Z,98754.56
2022-12-26T20:46:00.748Z,98742.31
2022-12-26T20:49:12.530Z,98747.61
2022-12-26T20:52:27.247Z,98761.80
2022-12-26T20:55:42.785Z,98759.44
2022-12-26T20:58:56.990Z,98771.84
2022-12-26T21:02:10.895Z,98765.55
2022-12-26T21:05:24.659Z,98783.52
2022-12-26T21:08:37.039Z,98786.45
2022-12-26T21:11:49.823Z,98797.56
2022-12-26T21:15:03.546Z,98790.44
2022-12-26T21:18:16.460Z,98794.45
2022-12-26T21:21:32.818Z,98798.27
2022-12-26T21:24:46.687Z,98787.16
2022-12-26T21:27:59.627Z,98788.44
2022-12-26T21:31:14.995Z,98790.69
2022-12-26T21:34:29.822Z,98791.40
2022-12-26T21:37:56.665Z,98800.87
2022-12-26T21:41:12.908Z,98806.06
2022-12-26T21:44:26.495Z,98813.72
2022-12-26T21:47:39.420Z,98824.98
2022-12-26T21:50:54.260Z,98822.02
2022-12-26T21:54:19.180Z,98812.22
2022-12-26T21:57:34.276Z,98811.89
2022-12-26T22:00:47.420Z,98813.27
2022-12-26T22:04:15.307Z,98813.27
2022-12-26T22:07:28.291Z,98806.03
2022-12-26T22:10:59.135Z,98804.66
2022-12-26T22:14:12.017Z,98792.70
2022-12-26T22:17:24.629Z,98787.72
2022-12-26T22:20:40.229Z,98789.98
2022-12-26T22:23:54.433Z,98792.36
2022-12-26T22:27:08.064Z,98798.36
2022-12-26T22:30:22.738Z,98789.70
2022-12-26T22:33:36.320Z,98790.55
2022-12-26T22:36:51.259Z,98781.05
2022-12-26T22:40:11.208Z,98791.08
2022-12-26T22:43:26.905Z,98789.84
2022-12-26T22:46:40.255Z,98777.84
2022-12-26T22:49:52.490Z,98780.48
2022-12-26T22:53:05.291Z,98778.22
2022-12-26T22:56:19.744Z,98792.70
2022-12-26T23:00:07.163Z,98795.16
2022-12-26T23:02:47.985Z,98799.04
2022-12-26T23:06:03.422Z,98792.22
2022-12-26T23:09:21.272Z,98786.92
2022-12-26T23:12:51.195Z,98784.00
2022-12-26T23:16:10.320Z,98774.50
2022-12-26T23:19:44.616Z,98776.44
2022-12-26T23:22:58.660Z,98773.93
2022-12-26T23:26:13.181Z,98763.20
2022-12-26T23:29:42.799Z,98763.20
2022-12-26T23:32:58.011Z,98761.41
2022-12-26T23:36:10.625Z,98756.81
2022-12-26T23:39:35.584Z,98755.02
2022-12-26T23:42:47.737Z,98755.02
2022-12-26T23:46:00.182Z,98747.78
2022-12-26T23:49:15.734Z,98740.97
2022-12-26T23:56:45.904Z,98743.09
